Search for airport 
image banner adimage banner adimage banner ad
image banner ad

1CA6 - On The Rocks

Located in Alpine, United States

ICAO - 1CA6, IATA -

Data provided by Airmate  

General information

Coordinates: N32°45'54" W116°43'21"
Elevation is 2650 feet MSL.
Magnetic variation is 13° East
View others Airports in California

Operational data

Special qualification required
Current time UTC:
Current local time:
Weather at : KSEE - Gillespie Field ( 24 km )
METAR: KSEE 211215Z AUTO 30004KT 10SM OVC010 15/13 A2994 RMK AO2
View NOTAMs / SUP AIP / TFR affecting this airport [VIEW]
Communications frequencies: [VIEW]

Runways:

RWY identifierQFULength (ft)Width (ft)SurfaceLDA (ft)
15234060GRAVEL
33234060GRAVEL

Airport contact information

Address: Alpine United States

Satellite view of 1CA6